sensor_id;sensor_type;location;lat;lon;timestamp;P1;durP1;ratioP1;P2;durP2;ratioP2
9106;SDS011;4589;48.690;8.952;2023-07-20T00:01:30;4.30;;;2.87;;
9106;SDS011;4589;48.690;8.952;2023-07-20T00:03:56;5.10;;;2.83;;
9106;SDS011;4589;48.690;8.952;2023-07-20T00:06:22;8.93;;;2.93;;
9106;SDS011;4589;48.690;8.952;2023-07-20T00:08:49;3.97;;;2.47;;
9106;SDS011;4589;48.690;8.952;2023-07-20T00:11:15;4.50;;;2.80;;
9106;SDS011;4589;48.690;8.952;2023-07-20T00:13:41;5.07;;;2.70;;
9106;SDS011;4589;48.690;8.952;2023-07-20T00:16:07;2.90;;;2.50;;
9106;SDS011;4589;48.690;8.952;2023-07-20T00:18:33;4.00;;;2.60;;
9106;SDS011;4589;48.690;8.952;2023-07-20T00:20:59;4.80;;;2.83;;
9106;SDS011;4589;48.690;8.952;2023-07-20T00:23:27;3.07;;;2.60;;
9106;SDS011;4589;48.690;8.952;2023-07-20T00:25:53;4.03;;;2.80;;
9106;SDS011;4589;48.690;8.952;2023-07-20T00:28:19;4.30;;;3.40;;
9106;SDS011;4589;48.690;8.952;2023-07-20T00:30:45;3.60;;;3.10;;
9106;SDS011;4589;48.690;8.952;2023-07-20T00:33:11;4.07;;;2.87;;
9106;SDS011;4589;48.690;8.952;2023-07-20T00:35:38;4.50;;;2.93;;
9106;SDS011;4589;48.690;8.952;2023-07-20T00:38:04;3.90;;;2.90;;
9106;SDS011;4589;48.690;8.952;2023-07-20T00:40:36;5.83;;;2.93;;
9106;SDS011;4589;48.690;8.952;2023-07-20T00:43:02;4.60;;;2.70;;
9106;SDS011;4589;48.690;8.952;2023-07-20T00:45:28;4.07;;;3.10;;
9106;SDS011;4589;48.690;8.952;2023-07-20T00:47:54;6.37;;;2.67;;
9106;SDS011;4589;48.690;8.952;2023-07-20T00:50:21;3.20;;;2.30;;
9106;SDS011;4589;48.690;8.952;2023-07-20T00:52:46;2.87;;;2.50;;
9106;SDS011;4589;48.690;8.952;2023-07-20T00:55:13;5.50;;;2.80;;
9106;SDS011;4589;48.690;8.952;2023-07-20T00:57:39;3.00;;;2.50;;
9106;SDS011;4589;48.690;8.952;2023-07-20T01:00:05;3.83;;;3.00;;
9106;SDS011;4589;48.690;8.952;2023-07-20T01:02:31;3.30;;;2.57;;
9106;SDS011;4589;48.690;8.952;2023-07-20T01:04:57;3.00;;;2.70;;
9106;SDS011;4589;48.690;8.952;2023-07-20T01:07:24;3.00;;;2.57;;
9106;SDS011;4589;48.690;8.952;2023-07-20T01:12:57;3.67;;;2.70;;
9106;SDS011;4589;48.690;8.952;2023-07-20T01:15:25;4.97;;;3.30;;
9106;SDS011;4589;48.690;8.952;2023-07-20T01:17:51;3.10;;;2.60;;
9106;SDS011;4589;48.690;8.952;2023-07-20T01:20:18;4.00;;;2.60;;
9106;SDS011;4589;48.690;8.952;2023-07-20T01:25:45;3.30;;;2.80;;
9106;SDS011;4589;48.690;8.952;2023-07-20T01:28:44;3.03;;;2.73;;
9106;SDS011;4589;48.690;8.952;2023-07-20T01:31:33;3.10;;;2.57;;
9106;SDS011;4589;48.690;8.952;2023-07-20T01:34:01;5.77;;;3.00;;
9106;SDS011;4589;48.690;8.952;2023-07-20T01:36:29;3.30;;;2.50;;
9106;SDS011;4589;48.690;8.952;2023-07-20T01:38:59;2.53;;;2.33;;
9106;SDS011;4589;48.690;8.952;2023-07-20T01:41:25;4.50;;;2.63;;
9106;SDS011;4589;48.690;8.952;2023-07-20T01:43:51;4.90;;;2.77;;
9106;SDS011;4589;48.690;8.952;2023-07-20T01:46:17;2.97;;;2.50;;
9106;SDS011;4589;48.690;8.952;2023-07-20T01:48:43;3.73;;;2.67;;
9106;SDS011;4589;48.690;8.952;2023-07-20T01:51:09;3.30;;;2.40;;
9106;SDS011;4589;48.690;8.952;2023-07-20T01:53:35;2.90;;;2.40;;
9106;SDS011;4589;48.690;8.952;2023-07-20T01:56:00;8.77;;;2.93;;
9106;SDS011;4589;48.690;8.952;2023-07-20T01:58:26;3.83;;;2.27;;
9106;SDS011;4589;48.690;8.952;2023-07-20T02:00:52;3.73;;;2.73;;
9106;SDS011;4589;48.690;8.952;2023-07-20T02:03:18;3.27;;;2.50;;
9106;SDS011;4589;48.690;8.952;2023-07-20T02:05:43;3.33;;;2.20;;
9106;SDS011;4589;48.690;8.952;2023-07-20T02:08:09;3.47;;;2.50;;
9106;SDS011;4589;48.690;8.952;2023-07-20T02:10:35;3.77;;;2.70;;
9106;SDS011;4589;48.690;8.952;2023-07-20T02:13:01;4.63;;;2.87;;
9106;SDS011;4589;48.690;8.952;2023-07-20T02:15:27;4.50;;;2.90;;
9106;SDS011;4589;48.690;8.952;2023-07-20T02:17:53;3.33;;;2.47;;
9106;SDS011;4589;48.690;8.952;2023-07-20T02:20:19;3.20;;;2.30;;
9106;SDS011;4589;48.690;8.952;2023-07-20T02:22:45;3.37;;;3.07;;
9106;SDS011;4589;48.690;8.952;2023-07-20T02:25:10;2.97;;;2.70;;
9106;SDS011;4589;48.690;8.952;2023-07-20T02:27:36;3.93;;;2.60;;
9106;SDS011;4589;48.690;8.952;2023-07-20T02:30:02;3.30;;;2.90;;
9106;SDS011;4589;48.690;8.952;2023-07-20T02:32:29;3.87;;;2.67;;
9106;SDS011;4589;48.690;8.952;2023-07-20T02:34:56;3.67;;;2.83;;
9106;SDS011;4589;48.690;8.952;2023-07-20T02:37:22;3.63;;;2.63;;
9106;SDS011;4589;48.690;8.952;2023-07-20T02:39:49;3.13;;;2.50;;
9106;SDS011;4589;48.690;8.952;2023-07-20T02:42:14;5.70;;;2.70;;
9106;SDS011;4589;48.690;8.952;2023-07-20T02:44:40;4.97;;;3.47;;
9106;SDS011;4589;48.690;8.952;2023-07-20T02:47:06;2.67;;;2.47;;
9106;SDS011;4589;48.690;8.952;2023-07-20T02:49:32;4.87;;;3.53;;
9106;SDS011;4589;48.690;8.952;2023-07-20T02:51:58;4.60;;;2.80;;
9106;SDS011;4589;48.690;8.952;2023-07-20T02:54:24;3.27;;;2.50;;
9106;SDS011;4589;48.690;8.952;2023-07-20T02:56:50;3.70;;;2.90;;
9106;SDS011;4589;48.690;8.952;2023-07-20T02:59:16;5.37;;;3.10;;
9106;SDS011;4589;48.690;8.952;2023-07-20T03:01:41;3.37;;;2.87;;
9106;SDS011;4589;48.690;8.952;2023-07-20T03:04:07;4.57;;;2.83;;
9106;SDS011;4589;48.690;8.952;2023-07-20T03:06:35;3.20;;;2.63;;
9106;SDS011;4589;48.690;8.952;2023-07-20T03:09:01;4.30;;;3.17;;
9106;SDS011;4589;48.690;8.952;2023-07-20T03:11:28;2.97;;;2.67;;
9106;SDS011;4589;48.690;8.952;2023-07-20T03:13:54;3.90;;;2.70;;
9106;SDS011;4589;48.690;8.952;2023-07-20T03:16:21;2.70;;;2.50;;
9106;SDS011;4589;48.690;8.952;2023-07-20T03:18:48;6.43;;;2.63;;
9106;SDS011;4589;48.690;8.952;2023-07-20T03:21:14;4.00;;;2.80;;
9106;SDS011;4589;48.690;8.952;2023-07-20T03:23:40;2.93;;;2.13;;
9106;SDS011;4589;48.690;8.952;2023-07-20T03:26:06;3.37;;;2.57;;
9106;SDS011;4589;48.690;8.952;2023-07-20T03:28:35;3.70;;;2.90;;
9106;SDS011;4589;48.690;8.952;2023-07-20T03:31:01;2.87;;;2.63;;
9106;SDS011;4589;48.690;8.952;2023-07-20T03:33:28;6.63;;;3.13;;
9106;SDS011;4589;48.690;8.952;2023-07-20T03:35:55;4.73;;;2.80;;
9106;SDS011;4589;48.690;8.952;2023-07-20T03:38:21;5.03;;;2.70;;
9106;SDS011;4589;48.690;8.952;2023-07-20T03:40:51;3.67;;;2.47;;
9106;SDS011;4589;48.690;8.952;2023-07-20T03:43:18;3.70;;;2.90;;
9106;SDS011;4589;48.690;8.952;2023-07-20T03:45:44;3.57;;;2.80;;
9106;SDS011;4589;48.690;8.952;2023-07-20T03:48:13;3.73;;;2.80;;
9106;SDS011;4589;48.690;8.952;2023-07-20T03:50:50;5.93;;;2.47;;
9106;SDS011;4589;48.690;8.952;2023-07-20T03:53:17;2.83;;;2.53;;
9106;SDS011;4589;48.690;8.952;2023-07-20T03:55:50;3.60;;;2.60;;
9106;SDS011;4589;48.690;8.952;2023-07-20T03:58:16;2.83;;;2.10;;
9106;SDS011;4589;48.690;8.952;2023-07-20T04:00:44;2.77;;;2.53;;
9106;SDS011;4589;48.690;8.952;2023-07-20T04:03:13;3.43;;;2.73;;
9106;SDS011;4589;48.690;8.952;2023-07-20T04:05:39;3.53;;;3.10;;
9106;SDS011;4589;48.690;8.952;2023-07-20T04:08:05;4.30;;;3.23;;
9106;SDS011;4589;48.690;8.952;2023-07-20T04:10:31;4.13;;;2.77;;
9106;SDS011;4589;48.690;8.952;2023-07-20T04:12:57;3.70;;;2.97;;
9106;SDS011;4589;48.690;8.952;2023-07-20T04:15:23;5.23;;;2.73;;
9106;SDS011;4589;48.690;8.952;2023-07-20T04:17:49;3.70;;;3.00;;
9106;SDS011;4589;48.690;8.952;2023-07-20T04:20:15;10.03;;;3.13;;
9106;SDS011;4589;48.690;8.952;2023-07-20T04:22:43;5.93;;;2.90;;
9106;SDS011;4589;48.690;8.952;2023-07-20T04:25:08;3.30;;;3.00;;
9106;SDS011;4589;48.690;8.952;2023-07-20T04:27:35;3.87;;;3.50;;
9106;SDS011;4589;48.690;8.952;2023-07-20T04:30:01;2.90;;;2.60;;
9106;SDS011;4589;48.690;8.952;2023-07-20T04:32:27;3.50;;;3.10;;
9106;SDS011;4589;48.690;8.952;2023-07-20T04:34:53;3.77;;;2.70;;
9106;SDS011;4589;48.690;8.952;2023-07-20T04:37:18;5.90;;;2.90;;
9106;SDS011;4589;48.690;8.952;2023-07-20T04:39:45;3.63;;;3.13;;
9106;SDS011;4589;48.690;8.952;2023-07-20T04:42:11;4.30;;;3.30;;
9106;SDS011;4589;48.690;8.952;2023-07-20T04:44:37;4.03;;;2.83;;
9106;SDS011;4589;48.690;8.952;2023-07-20T04:47:03;5.60;;;2.83;;
9106;SDS011;4589;48.690;8.952;2023-07-20T04:49:28;3.30;;;3.00;;
9106;SDS011;4589;48.690;8.952;2023-07-20T04:51:54;3.93;;;2.93;;
9106;SDS011;4589;48.690;8.952;2023-07-20T04:54:20;5.77;;;3.10;;
9106;SDS011;4589;48.690;8.952;2023-07-20T04:56:45;3.37;;;2.80;;
9106;SDS011;4589;48.690;8.952;2023-07-20T04:59:11;2.67;;;2.47;;
9106;SDS011;4589;48.690;8.952;2023-07-20T05:01:37;3.90;;;2.90;;
9106;SDS011;4589;48.690;8.952;2023-07-20T05:04:03;3.70;;;2.67;;
9106;SDS011;4589;48.690;8.952;2023-07-20T05:06:29;4.87;;;3.10;;
9106;SDS011;4589;48.690;8.952;2023-07-20T05:08:55;4.57;;;2.80;;
9106;SDS011;4589;48.690;8.952;2023-07-20T05:11:20;7.20;;;3.33;;
9106;SDS011;4589;48.690;8.952;2023-07-20T05:13:46;3.80;;;3.30;;
9106;SDS011;4589;48.690;8.952;2023-07-20T05:16:12;5.53;;;3.80;;
9106;SDS011;4589;48.690;8.952;2023-07-20T05:18:38;3.30;;;2.77;;
9106;SDS011;4589;48.690;8.952;2023-07-20T05:21:05;3.80;;;3.20;;
9106;SDS011;4589;48.690;8.952;2023-07-20T05:23:30;3.97;;;2.80;;
9106;SDS011;4589;48.690;8.952;2023-07-20T05:25:59;3.13;;;2.83;;
9106;SDS011;4589;48.690;8.952;2023-07-20T05:28:25;3.80;;;3.40;;
9106;SDS011;4589;48.690;8.952;2023-07-20T05:30:52;4.10;;;2.97;;
9106;SDS011;4589;48.690;8.952;2023-07-20T05:33:18;5.07;;;2.90;;
9106;SDS011;4589;48.690;8.952;2023-07-20T05:35:44;4.53;;;2.97;;
9106;SDS011;4589;48.690;8.952;2023-07-20T05:38:10;3.40;;;2.93;;
9106;SDS011;4589;48.690;8.952;2023-07-20T05:40:40;5.00;;;3.50;;
9106;SDS011;4589;48.690;8.952;2023-07-20T05:43:09;8.80;;;3.23;;
9106;SDS011;4589;48.690;8.952;2023-07-20T05:45:35;4.87;;;2.70;;
9106;SDS011;4589;48.690;8.952;2023-07-20T05:48:00;3.03;;;2.63;;
9106;SDS011;4589;48.690;8.952;2023-07-20T05:50:26;5.50;;;2.70;;
9106;SDS011;4589;48.690;8.952;2023-07-20T05:52:52;6.47;;;3.50;;
9106;SDS011;4589;48.690;8.952;2023-07-20T05:55:18;5.30;;;2.77;;
9106;SDS011;4589;48.690;8.952;2023-07-20T05:57:44;3.43;;;3.10;;
9106;SDS011;4589;48.690;8.952;2023-07-20T06:00:10;3.10;;;2.80;;
9106;SDS011;4589;48.690;8.952;2023-07-20T06:02:37;6.37;;;2.80;;
9106;SDS011;4589;48.690;8.952;2023-07-20T06:05:04;4.60;;;2.83;;
9106;SDS011;4589;48.690;8.952;2023-07-20T06:07:30;10.67;;;2.83;;
9106;SDS011;4589;48.690;8.952;2023-07-20T06:09:56;4.63;;;2.50;;
9106;SDS011;4589;48.690;8.952;2023-07-20T06:12:23;2.57;;;2.33;;
9106;SDS011;4589;48.690;8.952;2023-07-20T06:14:49;3.33;;;2.67;;
9106;SDS011;4589;48.690;8.952;2023-07-20T06:17:15;11.87;;;2.43;;
9106;SDS011;4589;48.690;8.952;2023-07-20T06:19:41;3.20;;;2.40;;
9106;SDS011;4589;48.690;8.952;2023-07-20T06:22:07;3.13;;;2.30;;
9106;SDS011;4589;48.690;8.952;2023-07-20T06:24:33;5.47;;;2.30;;
9106;SDS011;4589;48.690;8.952;2023-07-20T06:26:59;4.90;;;3.10;;
9106;SDS011;4589;48.690;8.952;2023-07-20T06:29:24;2.97;;;2.63;;
9106;SDS011;4589;48.690;8.952;2023-07-20T06:31:50;3.37;;;3.07;;
9106;SDS011;4589;48.690;8.952;2023-07-20T06:34:16;2.70;;;2.10;;
9106;SDS011;4589;48.690;8.952;2023-07-20T06:36:42;4.00;;;2.57;;
9106;SDS011;4589;48.690;8.952;2023-07-20T06:39:07;3.27;;;2.73;;
9106;SDS011;4589;48.690;8.952;2023-07-20T06:41:33;3.30;;;2.60;;
9106;SDS011;4589;48.690;8.952;2023-07-20T06:43:58;3.77;;;2.40;;
9106;SDS011;4589;48.690;8.952;2023-07-20T06:46:27;3.60;;;2.50;;
9106;SDS011;4589;48.690;8.952;2023-07-20T06:48:53;3.00;;;2.50;;
9106;SDS011;4589;48.690;8.952;2023-07-20T06:51:19;5.30;;;2.70;;
9106;SDS011;4589;48.690;8.952;2023-07-20T06:53:45;4.10;;;2.23;;
9106;SDS011;4589;48.690;8.952;2023-07-20T06:56:11;11.40;;;2.77;;
9106;SDS011;4589;48.690;8.952;2023-07-20T06:58:37;4.47;;;2.80;;
9106;SDS011;4589;48.690;8.952;2023-07-20T07:01:07;3.77;;;2.30;;
9106;SDS011;4589;48.690;8.952;2023-07-20T07:03:33;3.00;;;2.37;;
9106;SDS011;4589;48.690;8.952;2023-07-20T07:05:59;3.60;;;2.37;;
9106;SDS011;4589;48.690;8.952;2023-07-20T07:08:24;7.87;;;3.27;;
9106;SDS011;4589;48.690;8.952;2023-07-20T07:10:50;3.47;;;2.60;;
9106;SDS011;4589;48.690;8.952;2023-07-20T07:13:16;3.20;;;2.50;;
9106;SDS011;4589;48.690;8.952;2023-07-20T07:15:42;2.20;;;2.00;;
9106;SDS011;4589;48.690;8.952;2023-07-20T07:18:07;4.17;;;2.60;;
9106;SDS011;4589;48.690;8.952;2023-07-20T07:20:33;3.80;;;2.70;;
9106;SDS011;4589;48.690;8.952;2023-07-20T07:22:59;2.90;;;2.50;;
9106;SDS011;4589;48.690;8.952;2023-07-20T07:25:25;6.60;;;2.70;;
9106;SDS011;4589;48.690;8.952;2023-07-20T07:27:52;2.87;;;2.00;;
9106;SDS011;4589;48.690;8.952;2023-07-20T07:30:18;3.90;;;2.47;;
9106;SDS011;4589;48.690;8.952;2023-07-20T07:32:44;3.80;;;2.40;;
9106;SDS011;4589;48.690;8.952;2023-07-20T07:35:10;2.83;;;2.53;;
9106;SDS011;4589;48.690;8.952;2023-07-20T07:37:36;3.03;;;2.50;;
9106;SDS011;4589;48.690;8.952;2023-07-20T07:40:02;2.40;;;2.20;;
9106;SDS011;4589;48.690;8.952;2023-07-20T07:42:29;3.40;;;2.60;;
9106;SDS011;4589;48.690;8.952;2023-07-20T07:44:54;3.07;;;2.60;;
9106;SDS011;4589;48.690;8.952;2023-07-20T07:47:20;4.53;;;2.50;;
9106;SDS011;4589;48.690;8.952;2023-07-20T07:49:45;7.13;;;2.87;;
9106;SDS011;4589;48.690;8.952;2023-07-20T07:52:11;3.13;;;2.23;;
9106;SDS011;4589;48.690;8.952;2023-07-20T07:54:39;4.50;;;2.37;;
9106;SDS011;4589;48.690;8.952;2023-07-20T07:57:04;4.77;;;2.50;;
9106;SDS011;4589;48.690;8.952;2023-07-20T07:59:30;6.43;;;2.30;;
9106;SDS011;4589;48.690;8.952;2023-07-20T08:02:01;4.03;;;2.80;;
9106;SDS011;4589;48.690;8.952;2023-07-20T08:04:27;7.30;;;2.60;;
9106;SDS011;4589;48.690;8.952;2023-07-20T08:06:52;3.57;;;2.47;;
9106;SDS011;4589;48.690;8.952;2023-07-20T08:09:18;2.43;;;2.13;;
9106;SDS011;4589;48.690;8.952;2023-07-20T08:11:44;2.70;;;2.50;;
9106;SDS011;4589;48.690;8.952;2023-07-20T08:14:09;2.80;;;2.07;;
9106;SDS011;4589;48.690;8.952;2023-07-20T08:16:35;3.20;;;2.03;;
9106;SDS011;4589;48.690;8.952;2023-07-20T08:19:00;2.60;;;2.10;;
9106;SDS011;4589;48.690;8.952;2023-07-20T08:21:27;2.30;;;2.10;;
9106;SDS011;4589;48.690;8.952;2023-07-20T08:23:53;3.23;;;2.60;;
9106;SDS011;4589;48.690;8.952;2023-07-20T08:26:19;2.87;;;2.10;;
9106;SDS011;4589;48.690;8.952;2023-07-20T08:28:47;7.57;;;2.70;;
9106;SDS011;4589;48.690;8.952;2023-07-20T08:31:13;3.20;;;2.13;;
9106;SDS011;4589;48.690;8.952;2023-07-20T08:33:39;2.90;;;2.60;;
9106;SDS011;4589;48.690;8.952;2023-07-20T08:36:05;2.60;;;2.33;;
9106;SDS011;4589;48.690;8.952;2023-07-20T08:38:30;2.30;;;2.07;;
9106;SDS011;4589;48.690;8.952;2023-07-20T08:40:56;2.50;;;2.17;;
9106;SDS011;4589;48.690;8.952;2023-07-20T08:43:24;2.87;;;2.20;;
9106;SDS011;4589;48.690;8.952;2023-07-20T08:45:51;5.60;;;2.23;;
9106;SDS011;4589;48.690;8.952;2023-07-20T08:48:18;2.43;;;2.23;;
9106;SDS011;4589;48.690;8.952;2023-07-20T08:50:46;3.10;;;2.13;;
9106;SDS011;4589;48.690;8.952;2023-07-20T08:53:14;2.00;;;1.90;;
9106;SDS011;4589;48.690;8.952;2023-07-20T08:55:40;2.60;;;2.40;;
9106;SDS011;4589;48.690;8.952;2023-07-20T08:58:08;2.73;;;1.90;;
9106;SDS011;4589;48.690;8.952;2023-07-20T09:00:36;4.50;;;2.10;;
9106;SDS011;4589;48.690;8.952;2023-07-20T09:03:02;2.43;;;1.93;;
9106;SDS011;4589;48.690;8.952;2023-07-20T09:05:28;2.83;;;1.80;;
9106;SDS011;4589;48.690;8.952;2023-07-20T09:07:54;2.03;;;1.93;;
9106;SDS011;4589;48.690;8.952;2023-07-20T09:10:21;2.53;;;1.90;;
9106;SDS011;4589;48.690;8.952;2023-07-20T09:12:47;2.67;;;2.27;;
9106;SDS011;4589;48.690;8.952;2023-07-20T09:15:12;3.10;;;2.10;;
9106;SDS011;4589;48.690;8.952;2023-07-20T09:17:38;3.73;;;2.33;;
9106;SDS011;4589;48.690;8.952;2023-07-20T09:20:04;2.03;;;1.90;;
9106;SDS011;4589;48.690;8.952;2023-07-20T09:22:35;3.20;;;2.00;;
9106;SDS011;4589;48.690;8.952;2023-07-20T09:25:05;2.53;;;2.17;;
9106;SDS011;4589;48.690;8.952;2023-07-20T09:27:35;3.13;;;2.77;;
9106;SDS011;4589;48.690;8.952;2023-07-20T09:30:02;2.67;;;1.87;;
9106;SDS011;4589;48.690;8.952;2023-07-20T09:32:29;2.33;;;2.03;;
9106;SDS011;4589;48.690;8.952;2023-07-20T09:34:54;7.30;;;1.90;;
9106;SDS011;4589;48.690;8.952;2023-07-20T09:37:23;3.10;;;1.87;;
9106;SDS011;4589;48.690;8.952;2023-07-20T09:39:50;4.13;;;1.80;;
9106;SDS011;4589;48.690;8.952;2023-07-20T09:42:18;2.57;;;1.70;;
9106;SDS011;4589;48.690;8.952;2023-07-20T09:44:45;2.93;;;2.20;;
9106;SDS011;4589;48.690;8.952;2023-07-20T09:47:11;1.87;;;1.77;;
9106;SDS011;4589;48.690;8.952;2023-07-20T09:49:40;4.37;;;2.03;;
9106;SDS011;4589;48.690;8.952;2023-07-20T09:52:06;1.67;;;1.57;;
9106;SDS011;4589;48.690;8.952;2023-07-20T09:54:33;1.97;;;1.77;;
9106;SDS011;4589;48.690;8.952;2023-07-20T09:57:00;2.00;;;1.80;;
9106;SDS011;4589;48.690;8.952;2023-07-20T09:59:27;3.23;;;1.73;;
9106;SDS011;4589;48.690;8.952;2023-07-20T10:01:53;1.80;;;1.53;;
9106;SDS011;4589;48.690;8.952;2023-07-20T10:04:24;2.70;;;1.70;;
9106;SDS011;4589;48.690;8.952;2023-07-20T10:06:51;2.50;;;1.70;;
9106;SDS011;4589;48.690;8.952;2023-07-20T10:09:19;2.53;;;2.00;;
9106;SDS011;4589;48.690;8.952;2023-07-20T10:11:49;2.30;;;1.90;;
9106;SDS011;4589;48.690;8.952;2023-07-20T10:14:16;2.17;;;1.90;;
9106;SDS011;4589;48.690;8.952;2023-07-20T10:16:51;2.20;;;1.60;;
9106;SDS011;4589;48.690;8.952;2023-07-20T10:19:23;1.93;;;1.70;;
9106;SDS011;4589;48.690;8.952;2023-07-20T10:22:03;3.00;;;1.87;;
9106;SDS011;4589;48.690;8.952;2023-07-20T10:24:36;1.97;;;1.77;;
9106;SDS011;4589;48.690;8.952;2023-07-20T10:27:03;4.47;;;1.67;;
9106;SDS011;4589;48.690;8.952;2023-07-20T10:29:30;1.80;;;1.70;;
9106;SDS011;4589;48.690;8.952;2023-07-20T10:31:56;2.10;;;1.90;;
9106;SDS011;4589;48.690;8.952;2023-07-20T10:34:23;6.27;;;2.53;;
9106;SDS011;4589;48.690;8.952;2023-07-20T10:36:49;4.93;;;1.90;;
9106;SDS011;4589;48.690;8.952;2023-07-20T10:39:50;2.93;;;1.50;;
9106;SDS011;4589;48.690;8.952;2023-07-20T10:42:09;1.80;;;1.60;;
9106;SDS011;4589;48.690;8.952;2023-07-20T10:44:41;2.10;;;1.90;;
9106;SDS011;4589;48.690;8.952;2023-07-20T10:47:10;2.17;;;1.60;;
9106;SDS011;4589;48.690;8.952;2023-07-20T10:49:57;2.23;;;1.80;;
9106;SDS011;4589;48.690;8.952;2023-07-20T10:52:23;2.07;;;1.60;;
9106;SDS011;4589;48.690;8.952;2023-07-20T10:54:48;2.23;;;2.03;;
9106;SDS011;4589;48.690;8.952;2023-07-20T10:59:50;3.07;;;1.60;;
9106;SDS011;4589;48.690;8.952;2023-07-20T11:02:17;1.70;;;1.60;;
9106;SDS011;4589;48.690;8.952;2023-07-20T11:04:44;1.57;;;1.40;;
9106;SDS011;4589;48.690;8.952;2023-07-20T11:07:15;3.80;;;1.80;;
9106;SDS011;4589;48.690;8.952;2023-07-20T11:09:42;2.30;;;1.67;;
9106;SDS011;4589;48.690;8.952;2023-07-20T11:12:14;2.00;;;1.80;;
9106;SDS011;4589;48.690;8.952;2023-07-20T11:14:42;2.60;;;1.80;;
9106;SDS011;4589;48.690;8.952;2023-07-20T11:17:22;2.00;;;1.60;;
9106;SDS011;4589;48.690;8.952;2023-07-20T11:19:57;2.00;;;1.70;;
9106;SDS011;4589;48.690;8.952;2023-07-20T11:22:25;2.27;;;1.90;;
9106;SDS011;4589;48.690;8.952;2023-07-20T11:24:54;2.30;;;1.70;;
9106;SDS011;4589;48.690;8.952;2023-07-20T11:27:20;1.97;;;1.57;;
9106;SDS011;4589;48.690;8.952;2023-07-20T11:29:47;1.70;;;1.60;;
9106;SDS011;4589;48.690;8.952;2023-07-20T11:32:19;2.10;;;1.80;;
9106;SDS011;4589;48.690;8.952;2023-07-20T11:34:47;1.90;;;1.70;;
9106;SDS011;4589;48.690;8.952;2023-07-20T11:37:13;2.47;;;1.67;;
9106;SDS011;4589;48.690;8.952;2023-07-20T11:39:38;2.37;;;1.77;;
9106;SDS011;4589;48.690;8.952;2023-07-20T11:42:05;3.30;;;1.77;;
9106;SDS011;4589;48.690;8.952;2023-07-20T11:44:31;4.70;;;1.80;;
9106;SDS011;4589;48.690;8.952;2023-07-20T11:47:16;1.80;;;1.70;;
9106;SDS011;4589;48.690;8.952;2023-07-20T11:49:42;2.00;;;1.80;;
9106;SDS011;4589;48.690;8.952;2023-07-20T11:52:10;2.50;;;1.57;;
9106;SDS011;4589;48.690;8.952;2023-07-20T11:54:39;2.23;;;1.80;;
9106;SDS011;4589;48.690;8.952;2023-07-20T11:57:05;5.60;;;2.37;;
9106;SDS011;4589;48.690;8.952;2023-07-20T11:59:31;1.60;;;1.50;;
9106;SDS011;4589;48.690;8.952;2023-07-20T12:02:01;1.60;;;1.50;;
9106;SDS011;4589;48.690;8.952;2023-07-20T12:04:28;1.93;;;1.70;;
9106;SDS011;4589;48.690;8.952;2023-07-20T12:06:54;1.87;;;1.70;;
9106;SDS011;4589;48.690;8.952;2023-07-20T12:09:20;3.87;;;1.60;;
9106;SDS011;4589;48.690;8.952;2023-07-20T12:11:48;1.67;;;1.57;;
9106;SDS011;4589;48.690;8.952;2023-07-20T12:14:14;2.27;;;1.60;;
9106;SDS011;4589;48.690;8.952;2023-07-20T12:16:40;1.97;;;1.57;;
9106;SDS011;4589;48.690;8.952;2023-07-20T12:19:07;2.63;;;1.90;;
9106;SDS011;4589;48.690;8.952;2023-07-20T12:21:34;1.80;;;1.70;;
9106;SDS011;4589;48.690;8.952;2023-07-20T12:24:04;1.80;;;1.70;;
9106;SDS011;4589;48.690;8.952;2023-07-20T12:26:30;2.40;;;1.87;;
9106;SDS011;4589;48.690;8.952;2023-07-20T12:28:56;2.00;;;1.50;;
9106;SDS011;4589;48.690;8.952;2023-07-20T12:31:23;2.30;;;1.50;;
9106;SDS011;4589;48.690;8.952;2023-07-20T12:33:51;2.33;;;2.10;;
9106;SDS011;4589;48.690;8.952;2023-07-20T12:36:17;1.97;;;1.80;;
9106;SDS011;4589;48.690;8.952;2023-07-20T12:38:43;1.73;;;1.63;;
9106;SDS011;4589;48.690;8.952;2023-07-20T12:41:10;1.70;;;1.50;;
9106;SDS011;4589;48.690;8.952;2023-07-20T12:43:42;1.90;;;1.73;;
9106;SDS011;4589;48.690;8.952;2023-07-20T12:46:09;2.80;;;2.10;;
9106;SDS011;4589;48.690;8.952;2023-07-20T12:48:37;1.70;;;1.60;;
9106;SDS011;4589;48.690;8.952;2023-07-20T12:51:05;2.70;;;1.53;;
9106;SDS011;4589;48.690;8.952;2023-07-20T12:53:31;2.10;;;1.90;;
9106;SDS011;4589;48.690;8.952;2023-07-20T12:55:57;2.47;;;1.63;;
9106;SDS011;4589;48.690;8.952;2023-07-20T12:58:23;1.90;;;1.80;;
9106;SDS011;4589;48.690;8.952;2023-07-20T13:00:49;3.17;;;1.80;;
9106;SDS011;4589;48.690;8.952;2023-07-20T13:03:14;2.30;;;1.70;;
9106;SDS011;4589;48.690;8.952;2023-07-20T13:05:41;2.20;;;2.00;;
9106;SDS011;4589;48.690;8.952;2023-07-20T13:08:06;2.23;;;1.60;;
9106;SDS011;4589;48.690;8.952;2023-07-20T13:10:32;2.43;;;1.70;;
9106;SDS011;4589;48.690;8.952;2023-07-20T13:12:59;1.80;;;1.70;;
9106;SDS011;4589;48.690;8.952;2023-07-20T13:15:29;4.17;;;1.83;;
9106;SDS011;4589;48.690;8.952;2023-07-20T13:17:56;1.90;;;1.73;;
9106;SDS011;4589;48.690;8.952;2023-07-20T13:20:22;2.13;;;1.67;;
9106;SDS011;4589;48.690;8.952;2023-07-20T13:22:48;2.23;;;1.87;;
9106;SDS011;4589;48.690;8.952;2023-07-20T13:25:14;3.10;;;2.00;;
9106;SDS011;4589;48.690;8.952;2023-07-20T13:27:40;1.63;;;1.53;;
9106;SDS011;4589;48.690;8.952;2023-07-20T13:30:06;2.77;;;1.70;;
9106;SDS011;4589;48.690;8.952;2023-07-20T13:32:34;2.03;;;1.40;;
9106;SDS011;4589;48.690;8.952;2023-07-20T13:35:00;1.50;;;1.30;;
9106;SDS011;4589;48.690;8.952;2023-07-20T13:37:26;4.80;;;1.70;;
9106;SDS011;4589;48.690;8.952;2023-07-20T13:39:53;2.53;;;1.67;;
9106;SDS011;4589;48.690;8.952;2023-07-20T13:42:19;2.47;;;1.83;;
9106;SDS011;4589;48.690;8.952;2023-07-20T13:44:46;2.30;;;1.67;;
9106;SDS011;4589;48.690;8.952;2023-07-20T13:47:12;2.30;;;1.73;;
9106;SDS011;4589;48.690;8.952;2023-07-20T13:49:38;2.70;;;1.90;;
9106;SDS011;4589;48.690;8.952;2023-07-20T13:52:04;3.00;;;2.20;;
9106;SDS011;4589;48.690;8.952;2023-07-20T13:54:29;6.90;;;2.03;;
9106;SDS011;4589;48.690;8.952;2023-07-20T13:56:55;3.20;;;1.77;;
9106;SDS011;4589;48.690;8.952;2023-07-20T13:59:22;4.87;;;1.60;;
9106;SDS011;4589;48.690;8.952;2023-07-20T14:01:48;3.10;;;1.50;;
9106;SDS011;4589;48.690;8.952;2023-07-20T14:04:14;1.70;;;1.60;;
9106;SDS011;4589;48.690;8.952;2023-07-20T14:06:40;2.73;;;1.73;;
9106;SDS011;4589;48.690;8.952;2023-07-20T14:09:05;2.77;;;1.67;;
9106;SDS011;4589;48.690;8.952;2023-07-20T14:11:32;9.03;;;1.70;;
9106;SDS011;4589;48.690;8.952;2023-07-20T14:13:58;2.30;;;1.60;;
9106;SDS011;4589;48.690;8.952;2023-07-20T14:16:24;3.90;;;1.60;;
9106;SDS011;4589;48.690;8.952;2023-07-20T14:18:50;1.67;;;1.57;;
9106;SDS011;4589;48.690;8.952;2023-07-20T14:21:16;2.57;;;1.90;;
9106;SDS011;4589;48.690;8.952;2023-07-20T14:23:44;1.73;;;1.50;;
9106;SDS011;4589;48.690;8.952;2023-07-20T14:26:11;1.60;;;1.50;;
9106;SDS011;4589;48.690;8.952;2023-07-20T14:28:37;2.10;;;1.90;;
9106;SDS011;4589;48.690;8.952;2023-07-20T14:31:03;11.43;;;2.00;;
9106;SDS011;4589;48.690;8.952;2023-07-20T14:33:30;2.30;;;1.60;;
9106;SDS011;4589;48.690;8.952;2023-07-20T14:35:55;3.40;;;2.03;;
9106;SDS011;4589;48.690;8.952;2023-07-20T14:38:21;4.63;;;1.57;;
9106;SDS011;4589;48.690;8.952;2023-07-20T14:40:46;1.90;;;1.80;;
9106;SDS011;4589;48.690;8.952;2023-07-20T14:43:12;1.70;;;1.60;;
9106;SDS011;4589;48.690;8.952;2023-07-20T14:45:39;1.77;;;1.67;;
9106;SDS011;4589;48.690;8.952;2023-07-20T14:48:07;2.80;;;1.60;;
9106;SDS011;4589;48.690;8.952;2023-07-20T14:50:33;1.80;;;1.60;;
9106;SDS011;4589;48.690;8.952;2023-07-20T14:52:59;1.77;;;1.67;;
9106;SDS011;4589;48.690;8.952;2023-07-20T14:55:25;2.10;;;1.90;;
9106;SDS011;4589;48.690;8.952;2023-07-20T14:57:50;3.00;;;1.80;;
9106;SDS011;4589;48.690;8.952;2023-07-20T15:00:16;3.87;;;2.40;;
9106;SDS011;4589;48.690;8.952;2023-07-20T15:02:42;1.70;;;1.60;;
9106;SDS011;4589;48.690;8.952;2023-07-20T15:05:09;6.37;;;1.90;;
9106;SDS011;4589;48.690;8.952;2023-07-20T15:07:35;2.33;;;1.50;;
9106;SDS011;4589;48.690;8.952;2023-07-20T15:10:02;3.60;;;1.80;;
9106;SDS011;4589;48.690;8.952;2023-07-20T15:12:28;2.20;;;2.00;;
9106;SDS011;4589;48.690;8.952;2023-07-20T15:17:34;3.70;;;1.90;;
9106;SDS011;4589;48.690;8.952;2023-07-20T15:20:03;1.90;;;1.60;;
9106;SDS011;4589;48.690;8.952;2023-07-20T15:22:33;2.07;;;1.73;;
9106;SDS011;4589;48.690;8.952;2023-07-20T15:25:01;1.90;;;1.70;;